Padre Island — WDB4436 — position and weather

sailwx.info

Track history (hours):
 
Tides and Currents Weather Stations Pressure Air Temp Water Temp Dewpoint Dewpoint Depression Visibility Wind Speed Wind Dir Waves Ship Positions

Padre Island

Owner: Great Lakes Dredge & Dock Company, Oak Brook, IL. More information available from US FCC via Universal Licensing System and Coast Guard Vessel Documentation Center.

Last reported at 2015-Aug-03 20:33 UTC. Time now 2015-Aug-03 21:21 UTC.
Position N 39°38' W 074°05'.

Length 86 m; draft 19.6 m.

Type: Dredging. MMSI: 367525000.

Date/timePositionNaut miles runAvg speedWind from/ knotsBaromVisibWave heightAir tempDewpointWater temp
2015-Aug-03 20:33N 39°38' W 074°05'1 1.3
2015-Aug-03 19:33N 39°40' W 074°05'1 1.0
2015-Aug-03 18:33N 39°40' W 074°06'8 7.6
2015-Aug-03 17:32N 39°34' W 074°13'0 0.0
2015-Aug-03 16:33N 39°34' W 074°13'8 7.8
2015-Aug-03 15:33N 39°40' W 074°06'1 0.9
2015-Aug-03 14:33N 39°40' W 074°05'1 1.0
2015-Aug-03 13:33N 39°39' W 074°05'7 6.8
2015-Aug-03 12:33N 39°35' W 074°12'1 1.3
2015-Aug-03 11:33N 39°34' W 074°13'3 3.3
2015-Aug-03 10:33N 39°37' W 074°10'6 5.5
2015-Aug-03 09:33N 39°40' W 074°05'4 3.8
2015-Aug-03 08:33N 39°38' W 074°08'5 5.0
2015-Aug-03 07:33N 39°34' W 074°13'1 1.3
2015-Aug-03 06:33N 39°35' W 074°12'8 7.7
2015-Aug-03 05:33N 39°40' W 074°05'7 7.2
2015-Aug-03 04:31N 39°35' W 074°11'2 1.6
2015-Aug-03 03:34N 39°34' W 074°13'1 0.7
2015-Aug-03 02:33N 39°35' W 074°12'9 8.6
2015-Aug-03 01:33N 39°41' W 074°04'1 0.5
2015-Aug-03 00:33N 39°40' W 074°05'9 8.7
2015-Aug-02 23:33N 39°34' W 074°13'0 0.0
2015-Aug-02 22:33N 39°34' W 074°13'6 5.7
2015-Aug-02 21:33N 39°38' W 074°08'3 3.4
2015-Aug-02 20:33N 39°41' W 074°05'6 5.9
2015-Aug-02 19:33N 39°36' W 074°10'3 3.3
2015-Aug-02 18:33N 39°34' W 074°13'4 3.8
2015-Aug-02 17:33N 39°37' W 074°09'5 5.2
2015-Aug-02 16:33N 39°41' W 074°05'5 4.8
2015-Aug-02 15:33N 39°37' W 074°09'4 4.3
2015-Aug-02 14:33N 39°34' W 074°13'2 1.6
2015-Aug-02 13:33N 39°35' W 074°12'7 7.2
2015-Aug-02 12:33N 39°40' W 074°05'0 0.1
2015-Aug-02 11:33N 39°40' W 074°05'6 6.0
2015-Aug-02 10:33N 39°36' W 074°10'3 2.7
2015-Aug-02 09:33N 39°34' W 074°13'3 3.2
2015-Aug-02 08:33N 39°36' W 074°10'6 5.8
2015-Aug-02 07:33N 39°40' W 074°05'6 6.3
2015-Aug-02 06:33N 39°36' W 074°10'3 2.7
2015-Aug-02 05:32N 39°34' W 074°13'3 2.7
2015-Aug-02 04:33N 39°36' W 074°10'6 6.3
2015-Aug-02 03:33N 39°40' W 074°05'0 0.3
2015-Aug-02 02:33N 39°40' W 074°05'0 0.0
2015-Aug-02 00:31N 39°40' W 074°05'0 0.0
2015-Aug-01 23:19N 39°40' W 074°05'0 0.0
2015-Aug-01 22:07N 39°40' W 074°05'0 0.0
2015-Aug-01 21:31N 39°40' W 074°05'0 0.0
2015-Aug-01 20:31N 39°40' W 074°05'0 0.0
2015-Aug-01 19:25N 39°40' W 074°05'0 0.0
2015-Aug-01 18:19N 39°40' W 074°05'0 0.0
2015-Aug-01 17:13N 39°40' W 074°05'0 0.1
2015-Aug-01 16:33N 39°40' W 074°05'8 8.2
2015-Aug-01 15:33N 39°34' W 074°13'0 0.2
2015-Aug-01 14:32N 39°34' W 074°13'4 4.6
2015-Aug-01 13:33N 39°37' W 074°09'4 3.4
2015-Aug-01 12:20N 39°40' W 074°05'2 2.1
2015-Aug-01 11:34N 39°39' W 074°06'7 7.0
2015-Aug-01 10:33N 39°34' W 074°13'0 0.0
2015-Aug-01 09:33N 39°34' W 074°13'9 8.5
2015-Aug-01 08:33N 39°40' W 074°05'2 2.0
2015-Aug-01 07:33N 39°39' W 074°07'7 6.7
2015-Aug-01 06:33N 39°34' W 074°13'0 0.0
2015-Aug-01 05:33N 39°34' W 074°13'8 8.1
2015-Aug-01 04:33N 39°40' W 074°06'1 1.2
2015-Aug-01 03:33N 39°39' W 074°06'7 6.9
2015-Aug-01 02:33N 39°34' W 074°13'0 0.0
2015-Aug-01 01:33N 39°34' W 074°13'1 1.3
2015-Aug-01 00:33N 39°35' W 074°12'7 7.5
2015-Jul-31 23:33N 39°40' W 074°05'0 0.4
2015-Jul-31 22:33N 39°40' W 074°05'8 4.2
2015-Jul-31 20:33N 39°34' W 074°13'8 7.8
2015-Jul-31 19:33N 39°40' W 074°06'1 0.5
2015-Jul-31 18:33N 39°40' W 074°05'5 4.8
2015-Jul-31 17:33N 39°37' W 074°09'4 3.6
2015-Jul-31 16:33N 39°34' W 074°13'1 0.6
2015-Jul-31 15:33N 39°35' W 074°12'8 8.2
2015-Jul-31 14:34N 39°40' W 074°05'1 0.5
2015-Jul-31 13:32N 39°40' W 074°05'8 8.4
2015-Jul-31 12:33N 39°34' W 074°13'0 0.1
2015-Jul-31 11:33N 39°34' W 074°13'9 8.7
2015-Jul-31 10:33N 39°40' W 074°05'0 0.3
2015-Jul-31 09:33N 39°40' W 074°05'9 8.7
2015-Jul-31 08:34N 39°34' W 074°13'0 0.3
2015-Jul-31 07:33N 39°34' W 074°13'3 2.8
2015-Jul-31 06:33N 39°36' W 074°10'6 5.9
2015-Jul-31 05:33N 39°40' W 074°05'1 1.5
2015-Jul-31 04:33N 39°39' W 074°06'7 7.3
2015-Jul-31 03:33N 39°34' W 074°13'0 0.0
2015-Jul-31 02:33N 39°34' W 074°13'7 7.5
2015-Jul-31 01:33N 39°39' W 074°06'1 1.1
2015-Jul-31 00:33N 39°40' W 074°05'9 8.7
2015-Jul-30 23:33N 39°34' W 074°13'0 0.0
2015-Jul-30 22:33N 39°34' W 074°13'6 6.4
2015-Jul-30 21:33N 39°39' W 074°07'3 2.9
2015-Jul-30 20:33N 39°41' W 074°05'9 8.9
2015-Jul-30 19:31N 39°34' W 074°13'0 0.0
2015-Jul-30 18:33N 39°34' W 074°13'8 7.8
2015-Jul-30 17:33N 39°40' W 074°06'1 0.5
2015-Jul-30 16:33N 39°39' W 074°06'7 7.3
2015-Jul-30 15:33N 39°34' W 074°13'0 0.0
2015-Jul-30 14:32N 39°34' W 074°13'8 8.1
2015-Jul-30 13:33N 39°39' W 074°05'1 0.8
2015-Jul-30 12:33N 39°40' W 074°05'8 8.5
2015-Jul-30 11:33N 39°34' W 074°13'0 0.3
2015-Jul-30 10:33N 39°34' W 074°13'4 4.1
2015-Jul-30 09:33N 39°37' W 074°09'5 4.9
2015-Jul-30 08:33N 39°40' W 074°05'8 7.8
2015-Jul-30 07:33N 39°35' W 074°12'1 1.2
2015-Jul-30 06:33N 39°34' W 074°13'0 0.0
2015-Jul-30 05:33N 39°34' W 074°13'4 4.2
2015-Jul-30 04:33N 39°37' W 074°09'5 4.7
2015-Jul-30 03:33N 39°40' W 074°05'8 7.7
2015-Jul-30 02:33N 39°35' W 074°12'1 1.1
2015-Jul-30 01:33N 39°34' W 074°13'4 4.3
2015-Jul-30 00:33N 39°37' W 074°09'5 4.6
2015-Jul-29 23:34N 39°40' W 074°05'4 4.3
2015-Jul-29 22:33N 39°37' W 074°09'5 4.6
2015-Jul-29 21:33N 39°34' W 074°13'4 3.4
2015-Jul-29 20:26N 39°37' W 074°09'5 5.9
2015-Jul-29 19:33N 39°40' W 074°05'6 6.2
2015-Jul-29 18:33N 39°36' W 074°10'3 2.8
2015-Jul-29 17:32N 39°34' W 074°13'3 3.3
2015-Jul-29 16:33N 39°37' W 074°10'6 5.6
2015-Jul-29 15:33N 39°40' W 074°05'8 8.2
2015-Jul-29 14:33N 39°35' W 074°12'1 0.8
2015-Jul-29 13:33N 39°34' W 074°13'6 5.6
2015-Jul-29 12:33N 39°38' W 074°08'3 3.4
2015-Jul-29 11:34N 39°40' W 074°05'4 4.3
2015-Jul-29 10:33N 39°38' W 074°09'4 4.1
2015-Jul-29 09:33N 39°35' W 074°13'0 0.1
2015-Jul-29 08:33N 39°35' W 074°13'8 8.2
2015-Jul-29 07:33N 39°41' W 074°05'3 2.8
2015-Jul-29 06:33N 39°38' W 074°07'5 5.3
2015-Jul-29 05:31N 39°35' W 074°13'0 0.0
2015-Jul-29 04:33N 39°35' W 074°13'6 5.9
2015-Jul-29 03:33N 39°39' W 074°07'2 2.3
2015-Jul-29 02:33N 39°40' W 074°05'8 8.2
2015-Jul-29 01:33N 39°35' W 074°13'0 0.0
2015-Jul-29 00:33N 39°35' W 074°13'4 3.7
2015-Jul-28 23:33N 39°37' W 074°09'5 4.7
2015-Jul-28 22:33N 39°40' W 074°05'4 4.3
2015-Jul-28 21:33N 39°38' W 074°09'4 3.4
2015-Jul-28 20:18N 39°35' W 074°13'1 0.8
2015-Jul-28 19:33N 39°35' W 074°12'8 7.9
2015-Jul-28 18:33N 39°41' W 074°05'4 4.5
2015-Jul-28 17:33N 39°37' W 074°09'4 4.1
2015-Jul-28 16:33N 39°35' W 074°13'0 0.3
2015-Jul-28 15:33N 39°35' W 074°12'8 8.3
2015-Jul-28 14:33N 39°41' W 074°05'2 1.8
2015-Jul-28 13:33N 39°39' W 074°06'7 6.7
2015-Jul-28 12:33N 39°35' W 074°13'0 0.0
2015-Jul-28 11:33N 39°35' W 074°13'7 7.4
2015-Jul-28 10:33N 39°40' W 074°06'1 1.3
2015-Jul-28 09:33N 39°41' W 074°05'9 8.6
2015-Jul-28 08:33N 39°35' W 074°13'0 0.0
2015-Jul-28 07:33N 39°35' W 074°13'4 3.8
2015-Jul-28 06:33N 39°37' W 074°09'4 4.5
2015-Jul-28 05:33N 39°40' W 074°05'8 8.4
2015-Jul-28 04:33N 39°35' W 074°13'0 0.1
2015-Jul-28 03:33N 39°35' W 074°13'0 0.0
2015-Jul-28 02:32N 39°35' W 074°13'0 0.0
2015-Jul-28 01:33N 39°35' W 074°13'0 0.2
2015-Jul-28 00:33N 39°35' W 074°12'7 7.3
2015-Jul-27 23:33N 39°40' W 074°05'1 1.0
2015-Jul-27 22:33N 39°41' W 074°05'9 8.5
2015-Jul-27 21:33N 39°35' W 074°13'0 0.0
2015-Jul-27 20:33N 39°35' W 074°13'5 5.0
2015-Jul-27 19:33N 39°38' W 074°08'3 3.2
2015-Jul-27 18:33N 39°40' W 074°05'8 8.2
2015-Jul-27 17:33N 39°35' W 074°13'0 0.1
2015-Jul-27 16:32N 39°35' W 074°13'5 5.6
2015-Jul-27 15:33N 39°39' W 074°08'3 3.2
2015-Jul-27 14:33N 39°41' W 074°05'8 8.1
2015-Jul-27 13:32N 39°35' W 074°12'0 0.5
2015-Jul-27 12:33N 39°35' W 074°13'4 4.1
2015-Jul-27 11:33N 39°38' W 074°09'4 4.1
2015-Jul-27 10:29N 39°41' W 074°05'5 5.6
2015-Jul-27 09:33N 39°37' W 074°09'3 3.2
2015-Jul-27 08:32N 39°35' W 074°13'2 1.8
2015-Jul-27 07:33N 39°36' W 074°11'7 6.8
2015-Jul-27 06:33N 39°40' W 074°05'6 6.3
2015-Jul-27 05:33N 39°36' W 074°10'2 2.1
2015-Jul-27 04:33N 39°35' W 074°13'0 0.2
2015-Jul-27 03:33N 39°35' W 074°13'5 5.3
2015-Jul-27 02:33N 39°38' W 074°07'3 3.0
2015-Jul-27 01:33N 39°40' W 074°05'7 7.1
2015-Jul-27 00:33N 39°36' W 074°11'1 1.4
2015-Jul-26 23:32N 39°35' W 074°13'1 0.7
2015-Jul-26 22:33N 39°35' W 074°12'6 5.7
2015-Jul-26 21:33N 39°39' W 074°07'2 1.7
2015-Jul-26 20:33N 39°40' W 074°05'8 8.1
2015-Jul-26 19:33N 39°35' W 074°13'0 0.0
2015-Jul-26 18:33N 39°35' W 074°13'3 2.6
2015-Jul-26 17:32N 39°36' W 074°10'6 5.7
2015-Jul-26 16:32N 39°40' W 074°05'7 7.2
2015-Jul-26 15:33N 39°35' W 074°11'1 1.2
2015-Jul-26 14:30N 39°35' W 074°13'5 4.8
2015-Jul-26 13:31N 39°38' W 074°08'4 3.8
2015-Jul-26 12:33N 39°40' W 074°05'6 6.4
2015-Jul-26 11:33N 39°36' W 074°11'2 1.9
2015-Jul-26 10:33N 39°35' W 074°13'3 3.1
2015-Jul-26 09:33N 39°37' W 074°10'5 5.1
2015-Jul-26 08:33N 39°40' W 074°05'8 8.0
2015-Jul-26 07:34N 39°35' W 074°12'0 0.3
2015-Jul-26 06:32N 39°35' W 074°13'3 3.4
2015-Jul-26 05:33N 39°37' W 074°09'5 4.8
2015-Jul-26 04:33N 39°40' W 074°05'8 8.1
2015-Jul-26 03:33N 39°35' W 074°12'0 0.2
2015-Jul-26 02:30N 39°35' W 074°13'4 4.1
2015-Jul-26 01:33N 39°37' W 074°09'5 4.5
2015-Jul-26 00:33N 39°40' W 074°05'6 5.6
2015-Jul-25 23:33N 39°37' W 074°10'3 3.0
2015-Jul-25 22:33N 39°35' W 074°13'3 2.9
2015-Jul-25 21:33N 39°37' W 074°10'5 5.5
2015-Jul-25 20:33N 39°40' W 074°05'7 7.4
2015-Jul-25 19:33N 39°35' W 074°12'1 0.9
2015-Jul-25 18:31N 39°35' W 074°13'5 4.8
2015-Jul-25 17:33N 39°38' W 074°08'4 4.5
2015-Jul-25 16:33N 39°41' W 074°04'7 7.2
2015-Jul-25 15:33N 39°36' W 074°11'2 1.9
2015-Jul-25 14:33N 39°35' W 074°13'1 0.5
2015-Jul-25 13:33N 39°35' W 074°12'9 8.9
2015-Jul-25 12:33N 39°41' W 074°04'3 3.1
2015-Jul-25 11:33N 39°39' W 074°07'6 6.2
2015-Jul-25 10:33N 39°35' W 074°13'1 1.3
2015-Jul-25 09:33N 39°36' W 074°11'8 8.0
2015-Jul-25 08:33N 39°41' W 074°04'5 4.5
2015-Jul-25 07:33N 39°38' W 074°08'5 4.7
2015-Jul-25 06:33N 39°35' W 074°13'1 0.8
2015-Jul-25 05:33N 39°35' W 074°12'8 8.3
2015-Jul-25 04:33N 39°41' W 074°04'5 4.8
2015-Jul-25 03:33N 39°38' W 074°09'4 4.4
2015-Jul-25 02:33N 39°35' W 074°13'2 1.5
2015-Jul-25 01:33N 39°36' W 074°11'8 8.0
2015-Jul-25 00:33N 39°41' W 074°04'4 4.2
2015-Jul-24 23:33N 39°38' W 074°08'5 5.1
2015-Jul-24 22:33N 39°35' W 074°13'2 2.2
2015-Jul-24 21:33N 39°36' W 074°11'  
Track history (hours):
 
Tides and Currents Weather Stations Pressure Air Temp Water Temp Dewpoint Dewpoint Depression Visibility Wind Speed Wind Dir Waves Ship Positions

Padre Island

Owner: Great Lakes Dredge & Dock Company, Oak Brook, IL. More information available from US FCC via Universal Licensing System and Coast Guard Vessel Documentation Center.

Last reported at 2015-Aug-03 20:33 UTC. Time now 2015-Aug-03 21:21 UTC.
Position N 39°38' W 074°05'.

Length 86 m; draft 19.6 m.

Type: Dredging. MMSI: 367525000.

Date/timePositionNaut miles runAvg speedWind from/ knotsBaromVisibWave heightAir tempDewpointWater temp
2015-Aug-03 20:33N 39°38' W 074°05'1 1.3
2015-Aug-03 19:33N 39°40' W 074°05'1 1.0
2015-Aug-03 18:33N 39°40' W 074°06'8 7.6
2015-Aug-03 17:32N 39°34' W 074°13'0 0.0
2015-Aug-03 16:33N 39°34' W 074°13'8 7.8
2015-Aug-03 15:33N 39°40' W 074°06'1 0.9
2015-Aug-03 14:33N 39°40' W 074°05'1 1.0
2015-Aug-03 13:33N 39°39' W 074°05'7 6.8
2015-Aug-03 12:33N 39°35' W 074°12'1 1.3
2015-Aug-03 11:33N 39°34' W 074°13'3 3.3
2015-Aug-03 10:33N 39°37' W 074°10'6 5.5
2015-Aug-03 09:33N 39°40' W 074°05'4 3.8
2015-Aug-03 08:33N 39°38' W 074°08'5 5.0
2015-Aug-03 07:33N 39°34' W 074°13'1 1.3
2015-Aug-03 06:33N 39°35' W 074°12'8 7.7
2015-Aug-03 05:33N 39°40' W 074°05'7 7.2
2015-Aug-03 04:31N 39°35' W 074°11'2 1.6
2015-Aug-03 03:34N 39°34' W 074°13'1 0.7
2015-Aug-03 02:33N 39°35' W 074°12'9 8.6
2015-Aug-03 01:33N 39°41' W 074°04'1 0.5
2015-Aug-03 00:33N 39°40' W 074°05'9 8.7
2015-Aug-02 23:33N 39°34' W 074°13'0 0.0
2015-Aug-02 22:33N 39°34' W 074°13'6 5.7
2015-Aug-02 21:33N 39°38' W 074°08'3 3.4
2015-Aug-02 20:33N 39°41' W 074°05'6 5.9
2015-Aug-02 19:33N 39°36' W 074°10'3 3.3
2015-Aug-02 18:33N 39°34' W 074°13'4 3.8
2015-Aug-02 17:33N 39°37' W 074°09'5 5.2
2015-Aug-02 16:33N 39°41' W 074°05'5 4.8
2015-Aug-02 15:33N 39°37' W 074°09'4 4.3
2015-Aug-02 14:33N 39°34' W 074°13'2 1.6
2015-Aug-02 13:33N 39°35' W 074°12'7 7.2
2015-Aug-02 12:33N 39°40' W 074°05'0 0.1
2015-Aug-02 11:33N 39°40' W 074°05'6 6.0
2015-Aug-02 10:33N 39°36' W 074°10'3 2.7
2015-Aug-02 09:33N 39°34' W 074°13'3 3.2
2015-Aug-02 08:33N 39°36' W 074°10'6 5.8
2015-Aug-02 07:33N 39°40' W 074°05'6 6.3
2015-Aug-02 06:33N 39°36' W 074°10'3 2.7
2015-Aug-02 05:32N 39°34' W 074°13'3 2.7
2015-Aug-02 04:33N 39°36' W 074°10'6 6.3
2015-Aug-02 03:33N 39°40' W 074°05'0 0.3
2015-Aug-02 02:33N 39°40' W 074°05'0 0.0
2015-Aug-02 00:31N 39°40' W 074°05'0 0.0
2015-Aug-01 23:19N 39°40' W 074°05'0 0.0
2015-Aug-01 22:07N 39°40' W 074°05'0 0.0
2015-Aug-01 21:31N 39°40' W 074°05'0 0.0
2015-Aug-01 20:31N 39°40' W 074°05'0 0.0
2015-Aug-01 19:25N 39°40' W 074°05'0 0.0
2015-Aug-01 18:19N 39°40' W 074°05'0 0.0
2015-Aug-01 17:13N 39°40' W 074°05'0 0.1
2015-Aug-01 16:33N 39°40' W 074°05'8 8.2
2015-Aug-01 15:33N 39°34' W 074°13'0 0.2
2015-Aug-01 14:32N 39°34' W 074°13'4 4.6
2015-Aug-01 13:33N 39°37' W 074°09'4 3.4
2015-Aug-01 12:20N 39°40' W 074°05'2 2.1
2015-Aug-01 11:34N 39°39' W 074°06'7 7.0
2015-Aug-01 10:33N 39°34' W 074°13'0 0.0
2015-Aug-01 09:33N 39°34' W 074°13'9 8.5
2015-Aug-01 08:33N 39°40' W 074°05'2 2.0
2015-Aug-01 07:33N 39°39' W 074°07'7 6.7
2015-Aug-01 06:33N 39°34' W 074°13'0 0.0
2015-Aug-01 05:33N 39°34' W 074°13'8 8.1
2015-Aug-01 04:33N 39°40' W 074°06'1 1.2
2015-Aug-01 03:33N 39°39' W 074°06'7 6.9
2015-Aug-01 02:33N 39°34' W 074°13'0 0.0
2015-Aug-01 01:33N 39°34' W 074°13'1 1.3
2015-Aug-01 00:33N 39°35' W 074°12'7 7.5
2015-Jul-31 23:33N 39°40' W 074°05'0 0.4
2015-Jul-31 22:33N 39°40' W 074°05'8 4.2
2015-Jul-31 20:33N 39°34' W 074°13'8 7.8
2015-Jul-31 19:33N 39°40' W 074°06'1 0.5
2015-Jul-31 18:33N 39°40' W 074°05'5 4.8
2015-Jul-31 17:33N 39°37' W 074°09'4 3.6
2015-Jul-31 16:33N 39°34' W 074°13'1 0.6
2015-Jul-31 15:33N 39°35' W 074°12'8 8.2
2015-Jul-31 14:34N 39°40' W 074°05'1 0.5
2015-Jul-31 13:32N 39°40' W 074°05'8 8.4
2015-Jul-31 12:33N 39°34' W 074°13'0 0.1
2015-Jul-31 11:33N 39°34' W 074°13'9 8.7
2015-Jul-31 10:33N 39°40' W 074°05'0 0.3
2015-Jul-31 09:33N 39°40' W 074°05'9 8.7
2015-Jul-31 08:34N 39°34' W 074°13'0 0.3
2015-Jul-31 07:33N 39°34' W 074°13'3 2.8
2015-Jul-31 06:33N 39°36' W 074°10'6 5.9
2015-Jul-31 05:33N 39°40' W 074°05'1 1.5
2015-Jul-31 04:33N 39°39' W 074°06'7 7.3
2015-Jul-31 03:33N 39°34' W 074°13'0 0.0
2015-Jul-31 02:33N 39°34' W 074°13'7 7.5
2015-Jul-31 01:33N 39°39' W 074°06'1 1.1
2015-Jul-31 00:33N 39°40' W 074°05'9 8.7
2015-Jul-30 23:33N 39°34' W 074°13'0 0.0
2015-Jul-30 22:33N 39°34' W 074°13'6 6.4
2015-Jul-30 21:33N 39°39' W 074°07'3 2.9
2015-Jul-30 20:33N 39°41' W 074°05'9 8.9
2015-Jul-30 19:31N 39°34' W 074°13'0 0.0
2015-Jul-30 18:33N 39°34' W 074°13'8 7.8
2015-Jul-30 17:33N 39°40' W 074°06'1 0.5
2015-Jul-30 16:33N 39°39' W 074°06'7 7.3
2015-Jul-30 15:33N 39°34' W 074°13'0 0.0
2015-Jul-30 14:32N 39°34' W 074°13'8 8.1
2015-Jul-30 13:33N 39°39' W 074°05'1 0.8
2015-Jul-30 12:33N 39°40' W 074°05'8 8.5
2015-Jul-30 11:33N 39°34' W 074°13'0 0.3
2015-Jul-30 10:33N 39°34' W 074°13'4 4.1
2015-Jul-30 09:33N 39°37' W 074°09'5 4.9
2015-Jul-30 08:33N 39°40' W 074°05'8 7.8
2015-Jul-30 07:33N 39°35' W 074°12'1 1.2
2015-Jul-30 06:33N 39°34' W 074°13'0 0.0
2015-Jul-30 05:33N 39°34' W 074°13'4 4.2
2015-Jul-30 04:33N 39°37' W 074°09'5 4.7
2015-Jul-30 03:33N 39°40' W 074°05'8 7.7
2015-Jul-30 02:33N 39°35' W 074°12'1 1.1
2015-Jul-30 01:33N 39°34' W 074°13'4 4.3
2015-Jul-30 00:33N 39°37' W 074°09'5 4.6
2015-Jul-29 23:34N 39°40' W 074°05'4 4.3
2015-Jul-29 22:33N 39°37' W 074°09'5 4.6
2015-Jul-29 21:33N 39°34' W 074°13'4 3.4
2015-Jul-29 20:26N 39°37' W 074°09'5 5.9
2015-Jul-29 19:33N 39°40' W 074°05'6 6.2
2015-Jul-29 18:33N 39°36' W 074°10'3 2.8
2015-Jul-29 17:32N 39°34' W 074°13'3 3.3
2015-Jul-29 16:33N 39°37' W 074°10'6 5.6
2015-Jul-29 15:33N 39°40' W 074°05'8 8.2
2015-Jul-29 14:33N 39°35' W 074°12'1 0.8
2015-Jul-29 13:33N 39°34' W 074°13'6 5.6
2015-Jul-29 12:33N 39°38' W 074°08'3 3.4
2015-Jul-29 11:34N 39°40' W 074°05'4 4.3
2015-Jul-29 10:33N 39°38' W 074°09'4 4.1
2015-Jul-29 09:33N 39°35' W 074°13'0 0.1
2015-Jul-29 08:33N 39°35' W 074°13'8 8.2
2015-Jul-29 07:33N 39°41' W 074°05'3 2.8
2015-Jul-29 06:33N 39°38' W 074°07'5 5.3
2015-Jul-29 05:31N 39°35' W 074°13'0 0.0
2015-Jul-29 04:33N 39°35' W 074°13'6 5.9
2015-Jul-29 03:33N 39°39' W 074°07'2 2.3
2015-Jul-29 02:33N 39°40' W 074°05'8 8.2
2015-Jul-29 01:33N 39°35' W 074°13'0 0.0
2015-Jul-29 00:33N 39°35' W 074°13'4 3.7
2015-Jul-28 23:33N 39°37' W 074°09'5 4.7
2015-Jul-28 22:33N 39°40' W 074°05'4 4.3
2015-Jul-28 21:33N 39°38' W 074°09'4 3.4
2015-Jul-28 20:18N 39°35' W 074°13'1 0.8
2015-Jul-28 19:33N 39°35' W 074°12'8 7.9
2015-Jul-28 18:33N 39°41' W 074°05'4 4.5
2015-Jul-28 17:33N 39°37' W 074°09'4 4.1
2015-Jul-28 16:33N 39°35' W 074°13'0 0.3
2015-Jul-28 15:33N 39°35' W 074°12'8 8.3
2015-Jul-28 14:33N 39°41' W 074°05'2 1.8
2015-Jul-28 13:33N 39°39' W 074°06'7 6.7
2015-Jul-28 12:33N 39°35' W 074°13'0 0.0
2015-Jul-28 11:33N 39°35' W 074°13'7 7.4
2015-Jul-28 10:33N 39°40' W 074°06'1 1.3
2015-Jul-28 09:33N 39°41' W 074°05'9 8.6
2015-Jul-28 08:33N 39°35' W 074°13'0 0.0
2015-Jul-28 07:33N 39°35' W 074°13'4 3.8
2015-Jul-28 06:33N 39°37' W 074°09'4 4.5
2015-Jul-28 05:33N 39°40' W 074°05'8 8.4
2015-Jul-28 04:33N 39°35' W 074°13'0 0.1
2015-Jul-28 03:33N 39°35' W 074°13'0 0.0
2015-Jul-28 02:32N 39°35' W 074°13'0 0.0
2015-Jul-28 01:33N 39°35' W 074°13'0 0.2
2015-Jul-28 00:33N 39°35' W 074°12'7 7.3
2015-Jul-27 23:33N 39°40' W 074°05'1 1.0
2015-Jul-27 22:33N 39°41' W 074°05'9 8.5
2015-Jul-27 21:33N 39°35' W 074°13'0 0.0
2015-Jul-27 20:33N 39°35' W 074°13'5 5.0
2015-Jul-27 19:33N 39°38' W 074°08'3 3.2
2015-Jul-27 18:33N 39°40' W 074°05'8 8.2
2015-Jul-27 17:33N 39°35' W 074°13'0 0.1
2015-Jul-27 16:32N 39°35' W 074°13'5 5.6
2015-Jul-27 15:33N 39°39' W 074°08'3 3.2
2015-Jul-27 14:33N 39°41' W 074°05'8 8.1
2015-Jul-27 13:32N 39°35' W 074°12'0 0.5
2015-Jul-27 12:33N 39°35' W 074°13'4 4.1
2015-Jul-27 11:33N 39°38' W 074°09'4 4.1
2015-Jul-27 10:29N 39°41' W 074°05'5 5.6
2015-Jul-27 09:33N 39°37' W 074°09'3 3.2
2015-Jul-27 08:32N 39°35' W 074°13'2 1.8
2015-Jul-27 07:33N 39°36' W 074°11'7 6.8
2015-Jul-27 06:33N 39°40' W 074°05'6 6.3
2015-Jul-27 05:33N 39°36' W 074°10'2 2.1
2015-Jul-27 04:33N 39°35' W 074°13'0 0.2
2015-Jul-27 03:33N 39°35' W 074°13'5 5.3
2015-Jul-27 02:33N 39°38' W 074°07'3 3.0
2015-Jul-27 01:33N 39°40' W 074°05'7 7.1
2015-Jul-27 00:33N 39°36' W 074°11'1 1.4
2015-Jul-26 23:32N 39°35' W 074°13'1 0.7
2015-Jul-26 22:33N 39°35' W 074°12'6 5.7
2015-Jul-26 21:33N 39°39' W 074°07'2 1.7
2015-Jul-26 20:33N 39°40' W 074°05'8 8.1
2015-Jul-26 19:33N 39°35' W 074°13'0 0.0
2015-Jul-26 18:33N 39°35' W 074°13'3 2.6
2015-Jul-26 17:32N 39°36' W 074°10'6 5.7
2015-Jul-26 16:32N 39°40' W 074°05'7 7.2
2015-Jul-26 15:33N 39°35' W 074°11'1 1.2
2015-Jul-26 14:30N 39°35' W 074°13'5 4.8
2015-Jul-26 13:31N 39°38' W 074°08'4 3.8
2015-Jul-26 12:33N 39°40' W 074°05'6 6.4
2015-Jul-26 11:33N 39°36' W 074°11'2 1.9
2015-Jul-26 10:33N 39°35' W 074°13'3 3.1
2015-Jul-26 09:33N 39°37' W 074°10'5 5.1
2015-Jul-26 08:33N 39°40' W 074°05'8 8.0
2015-Jul-26 07:34N 39°35' W 074°12'0 0.3
2015-Jul-26 06:32N 39°35' W 074°13'3 3.4
2015-Jul-26 05:33N 39°37' W 074°09'5 4.8
2015-Jul-26 04:33N 39°40' W 074°05'8 8.1
2015-Jul-26 03:33N 39°35' W 074°12'0 0.2
2015-Jul-26 02:30N 39°35' W 074°13'4 4.1
2015-Jul-26 01:33N 39°37' W 074°09'5 4.5
2015-Jul-26 00:33N 39°40' W 074°05'6 5.6
2015-Jul-25 23:33N 39°37' W 074°10'3 3.0
2015-Jul-25 22:33N 39°35' W 074°13'3 2.9
2015-Jul-25 21:33N 39°37' W 074°10'5 5.5
2015-Jul-25 20:33N 39°40' W 074°05'7 7.4
2015-Jul-25 19:33N 39°35' W 074°12'1 0.9
2015-Jul-25 18:31N 39°35' W 074°13'5 4.8
2015-Jul-25 17:33N 39°38' W 074°08'4 4.5
2015-Jul-25 16:33N 39°41' W 074°04'7 7.2
2015-Jul-25 15:33N 39°36' W 074°11'2 1.9
2015-Jul-25 14:33N 39°35' W 074°13'1 0.5
2015-Jul-25 13:33N 39°35' W 074°12'9 8.9
2015-Jul-25 12:33N 39°41' W 074°04'3 3.1
2015-Jul-25 11:33N 39°39' W 074°07'6 6.2
2015-Jul-25 10:33N 39°35' W 074°13'1 1.3
2015-Jul-25 09:33N 39°36' W 074°11'8 8.0
2015-Jul-25 08:33N 39°41' W 074°04'5 4.5
2015-Jul-25 07:33N 39°38' W 074°08'5 4.7
2015-Jul-25 06:33N 39°35' W 074°13'1 0.8
2015-Jul-25 05:33N 39°35' W 074°12'8 8.3
2015-Jul-25 04:33N 39°41' W 074°04'5 4.8
2015-Jul-25 03:33N 39°38' W 074°09'4 4.4
2015-Jul-25 02:33N 39°35' W 074°13'2 1.5
2015-Jul-25 01:33N 39°36' W 074°11'8 8.0
2015-Jul-25 00:33N 39°41' W 074°04'4 4.2
2015-Jul-24 23:33N 39°38' W 074°08'5 5.1
2015-Jul-24 22:33N 39°35' W 074°13'2 2.2
2015-Jul-24 21:33N 39°36' W 074°11'  

Dump ship's entire track history